Time;durP1;ratioP1;P1;durP2;ratioP2;P2;SDS_P1;SDS_P2;PMS_P1;PMS_P2;Temp;Humidity;BMP_temperature;BMP_pressure;BME280_temperature;BME280_humidity;BME280_pressure;Samples;Min_cycle;Max_cycle;Signal;HPM_P1;HPM_P2
2022/11/13 07:04:13;;;;;;;;;;;;;;;12.81;71.68;97406.56;4231336;27;10309;-70
2022/11/13 07:06:19;;;;;;;;;;;;;;;13.08;71.04;97400.44;4231994;28;5677;-70
2022/11/13 07:08:21;;;;;;;;;;;;;;;13.31;70.66;97402.84;4231523;28;5686;-71
2022/11/13 07:10:24;;;;;;;;;;;;;;;13.48;70.29;97400.72;4231150;27;6469;-70
2022/11/13 07:12:28;;;;;;;;;;;;;;;13.62;69.67;97396.28;4229709;28;5119;-70
2022/11/13 07:14:30;;;;;;;;;;;;;;;13.71;69.63;97391.63;4228337;28;5609;-70
2022/11/13 07:16:33;;;;;;;;;;;;;;;13.80;69.22;97393.88;4222528;28;5785;-70
2022/11/13 07:18:56;;;;;;;;;;;;;;;13.90;69.10;97394.34;4219469;28;5613;-70
2022/11/13 07:21:04;;;;;;;;;;;;;;;13.97;68.95;97397.03;4231074;28;5735;-70
2022/11/13 07:23:07;;;;;;;;;;;;;;;13.99;68.72;97392.34;4230890;28;5692;-70
2022/11/13 07:25:10;;;;;;;;;;;;;;;14.05;68.58;97390.72;4230817;28;5609;-71
2022/11/13 07:27:13;;;;;;;;;;;;;;;14.07;68.35;97400.13;4231095;28;5673;-70
2022/11/13 07:29:15;;;;;;;;;;;;;;;14.10;67.97;97398.91;4231230;28;5661;-69
2022/11/13 07:31:19;;;;;;;;;;;;;;;14.10;67.96;97397.06;4230751;28;5678;-70
2022/11/13 07:33:22;;;;;;;;;;;;;;;14.13;67.74;97399.31;4230872;28;5803;-70
2022/11/13 07:35:25;;;;;;;;;;;;;;;14.14;67.68;97394.81;4230969;28;5605;-71
2022/11/13 07:37:29;;;;;;;;;;;;;;;14.15;67.73;97393.78;4230970;28;5704;-71
2022/11/13 07:39:32;;;;;;;;;;;;;;;14.17;67.30;97394.44;4230455;28;5636;-70
2022/11/13 07:41:34;;;;;;;;;;;;;;;14.19;67.39;97397.72;4230824;28;5625;-70
2022/11/13 07:43:37;;;;;;;;;;;;;;;14.20;67.29;97404.66;4230531;28;5629;-70
2022/11/13 07:45:40;;;;;;;;;;;;;;;14.23;66.87;97393.63;4230632;28;6302;-71
2022/11/13 07:47:42;;;;;;;;;;;;;;;14.23;66.82;97397.09;4230610;28;5870;-71
2022/11/13 07:49:45;;;;;;;;;;;;;;;14.24;66.89;97395.25;4230745;28;5685;-71
2022/11/13 07:51:48;;;;;;;;;;;;;;;14.27;66.67;97392.22;4230718;28;5756;-70
2022/11/13 07:53:52;;;;;;;;;;;;;;;14.29;66.27;97387.50;4230064;28;5674;-70
2022/11/13 07:55:55;;;;;;;;;;;;;;;14.29;66.47;97390.16;4230580;28;5686;-70
2022/11/13 07:57:58;;;;;;;;;;;;;;;14.29;66.46;97398.16;4230557;28;6352;-70
2022/11/13 08:00:01;;;;;;;;;;;;;;;14.31;66.02;97397.94;4230284;28;5799;-70
2022/11/13 08:02:03;;;;;;;;;;;;;;;14.32;66.01;97392.41;4229421;28;5673;-71
2022/11/13 08:04:06;;;;;;;;;;;;;;;14.33;65.69;97382.59;4215414;28;5719;-70
2022/11/13 08:06:09;;;;;;;;;;;;;;;14.35;65.61;97392.00;4214470;28;5857;-70
2022/11/13 08:08:12;;;;;;;;;;;;;;;14.35;65.71;97384.03;4206392;28;6968;-70
2022/11/13 08:10:18;;;;;;;;;;;;;;;14.36;65.72;97383.00;4211263;28;6533;-70
2022/11/13 08:12:20;;;;;;;;;;;;;;;14.35;65.56;97393.84;4217218;28;5718;-70
2022/11/13 08:14:23;;;;;;;;;;;;;;;14.35;65.37;97381.38;4203741;28;6977;-70
2022/11/13 08:16:26;;;;;;;;;;;;;;;14.36;65.33;97385.66;4213886;28;5840;-71
2022/11/13 08:18:29;;;;;;;;;;;;;;;14.38;65.29;97380.13;4201901;28;5774;-70
2022/11/13 08:20:33;;;;;;;;;;;;;;;14.38;65.17;97380.94;4214561;28;5700;-71
2022/11/13 08:22:36;;;;;;;;;;;;;;;14.39;65.01;97377.28;4213761;28;5609;-70
2022/11/13 08:24:39;;;;;;;;;;;;;;;14.41;64.63;97371.78;4217471;28;5670;-70
2022/11/13 08:26:43;;;;;;;;;;;;;;;14.41;64.88;97375.25;4214116;28;6936;-71
2022/11/13 08:28:46;;;;;;;;;;;;;;;14.40;64.77;97373.63;4204132;28;5609;-70
2022/11/13 08:30:49;;;;;;;;;;;;;;;14.39;64.50;97371.16;4208137;28;5797;-71
2022/11/13 08:32:52;;;;;;;;;;;;;;;14.38;64.68;97370.31;4209316;28;5727;-70
2022/11/13 08:34:54;;;;;;;;;;;;;;;14.38;64.64;97364.19;4209616;28;6408;-70
2022/11/13 08:36:57;;;;;;;;;;;;;;;14.39;64.40;97368.50;4213542;28;5812;-68
2022/11/13 08:39:00;;;;;;;;;;;;;;;14.39;64.05;97356.03;4212832;28;5609;-68
2022/11/13 08:41:06;;;;;;;;;;;;;;;14.37;64.28;97354.56;4205303;28;5742;-68
2022/11/13 08:43:12;;;;;;;;;;;;;;;14.39;64.03;97344.56;4209269;28;6301;-68
2022/11/13 08:45:16;;;;;;;;;;;;;;;14.37;64.05;97347.41;4208789;28;5683;-68
2022/11/13 08:47:19;;;;;;;;;;;;;;;14.39;63.88;97356.03;4196459;28;5643;-68
2022/11/13 08:49:21;;;;;;;;;;;;;;;14.38;63.77;97350.88;4210200;28;5608;-69
2022/11/13 08:51:24;;;;;;;;;;;;;;;14.37;63.88;97354.56;4211681;28;5328;-69
2022/11/13 08:53:27;;;;;;;;;;;;;;;14.34;63.88;97352.31;4208849;28;7673;-68
2022/11/13 08:55:30;;;;;;;;;;;;;;;14.32;63.89;97352.53;4209237;28;5616;-69
2022/11/13 08:57:32;;;;;;;;;;;;;;;14.32;63.55;97347.19;4213187;28;5735;-69
2022/11/13 08:59:38;;;;;;;;;;;;;;;14.33;63.39;97345.34;4207021;28;5621;-68
2022/11/13 09:01:41;;;;;;;;;;;;;;;14.33;63.40;97351.50;4208403;28;5624;-69
2022/11/13 09:03:44;;;;;;;;;;;;;;;14.32;63.23;97343.72;4210854;28;5782;-68
2022/11/13 09:05:47;;;;;;;;;;;;;;;14.33;63.07;97356.00;4208123;28;5757;-69
2022/11/13 09:07:50;;;;;;;;;;;;;;;14.33;63.22;97354.16;4205688;28;6423;-69
2022/11/13 09:09:53;;;;;;;;;;;;;;;14.32;62.89;97355.19;4206343;28;5613;-68
2022/11/13 09:11:55;;;;;;;;;;;;;;;14.32;62.83;97351.69;4204832;28;5846;-69
2022/11/13 09:13:58;;;;;;;;;;;;;;;14.32;63.13;97355.19;4206544;28;7705;-68
2022/11/13 09:16:03;;;;;;;;;;;;;;;14.29;62.81;97339.63;4206405;28;5727;-69
2022/11/13 09:18:06;;;;;;;;;;;;;;;14.29;62.61;97339.63;4203327;28;6555;-68
2022/11/13 09:20:09;;;;;;;;;;;;;;;14.27;62.94;97337.19;4207785;28;5816;-68
2022/11/13 09:22:15;;;;;;;;;;;;;;;14.29;62.51;97334.31;4206649;28;5705;-68
2022/11/13 09:24:19;;;;;;;;;;;;;;;14.30;62.71;97335.94;4204986;28;5755;-68
2022/11/13 09:26:22;;;;;;;;;;;;;;;14.30;62.54;97335.13;4212531;28;5686;-68
2022/11/13 09:28:25;;;;;;;;;;;;;;;14.31;62.46;97334.94;4208287;28;5775;-69
2022/11/13 09:30:29;;;;;;;;;;;;;;;14.30;62.55;97332.47;4214460;28;6691;-68
2022/11/13 09:32:33;;;;;;;;;;;;;;;14.30;62.49;97325.31;4191395;28;5760;-69
2022/11/13 09:34:36;;;;;;;;;;;;;;;14.32;62.36;97335.75;4208117;28;5597;-71
2022/11/13 09:36:39;;;;;;;;;;;;;;;14.32;62.26;97336.56;4209630;28;5735;-68
2022/11/13 09:38:42;;;;;;;;;;;;;;;14.30;62.23;97335.13;4211147;28;5612;-69
2022/11/13 09:40:49;;;;;;;;;;;;;;;14.28;62.20;97327.38;4207558;28;5830;-69
2022/11/13 09:42:52;;;;;;;;;;;;;;;14.27;61.99;97325.72;4208352;28;6313;-69
2022/11/13 09:45:00;;;;;;;;;;;;;;;14.30;61.90;97325.31;4203974;28;5613;-69
2022/11/13 09:47:08;;;;;;;;;;;;;;;14.31;62.08;97320.81;4214099;28;6368;-69
2022/11/13 09:49:18;;;;;;;;;;;;;;;14.31;61.71;97321.63;4209579;28;5712;-69
2022/11/13 09:51:26;;;;;;;;;;;;;;;14.33;61.98;97332.06;4208245;28;5740;-68
2022/11/13 09:53:35;;;;;;;;;;;;;;;14.35;61.59;97330.00;4205851;28;5803;-68
2022/11/13 09:55:50;;;;;;;;;;;;;;;14.38;61.63;97334.91;4204632;28;5828;-69
2022/11/13 09:58:00;;;;;;;;;;;;;;;14.40;61.52;97331.06;4210071;28;5829;-69
2022/11/13 10:00:07;;;;;;;;;;;;;;;14.42;61.61;97328.19;4207148;28;5711;-69
2022/11/13 10:02:23;;;;;;;;;;;;;;;14.41;61.43;97327.38;4202668;28;5632;-69
2022/11/13 10:04:37;;;;;;;;;;;;;;;14.43;61.68;97320.00;4208026;28;5726;-69
2022/11/13 10:06:51;;;;;;;;;;;;;;;14.43;61.46;97319.19;4215872;28;5629;-69
2022/11/13 10:09:00;;;;;;;;;;;;;;;14.43;61.33;97314.69;4211032;28;5795;-69
2022/11/13 10:11:13;;;;;;;;;;;;;;;14.44;61.22;97311.03;4211430;28;5696;-69
2022/11/13 10:13:20;;;;;;;;;;;;;;;14.44;61.05;97305.69;4211650;28;5708;-68
2022/11/13 10:15:25;;;;;;;;;;;;;;;14.46;61.24;97308.97;4210619;28;7468;-69
2022/11/13 10:17:34;;;;;;;;;;;;;;;14.46;61.14;97311.63;4211081;28;6002;-69
2022/11/13 10:19:45;;;;;;;;;;;;;;;14.46;61.04;97308.97;4209342;28;5718;-69
2022/11/13 10:21:50;;;;;;;;;;;;;;;14.48;61.08;97316.75;4203859;28;5751;-69
2022/11/13 10:24:05;;;;;;;;;;;;;;;14.47;61.07;97313.25;4206767;28;5795;-69
2022/11/13 10:26:17;;;;;;;;;;;;;;;14.46;61.00;97308.97;4206720;28;5718;-69
2022/11/13 10:28:23;;;;;;;;;;;;;;;14.47;60.90;97307.94;4208076;28;5609;-68
2022/11/13 10:30:46;;;;;;;;;;;;;;;14.49;60.63;97297.91;4210856;28;5756;-68
2022/11/13 10:32:49;;;;;;;;;;;;;;;14.51;60.69;97290.56;4207384;28;5908;-68
2022/11/13 10:34:57;;;;;;;;;;;;;;;14.49;60.85;97284.59;4207585;28;5601;-68
2022/11/13 10:37:20;;;;;;;;;;;;;;;14.50;60.56;97288.94;4216390;28;5712;-69
2022/11/13 10:39:22;;;;;;;;;;;;;;;14.51;60.57;97282.59;4215945;28;5711;-68
2022/11/13 10:41:25;;;;;;;;;;;;;;;14.52;60.62;97286.06;4216334;28;5608;-68
2022/11/13 10:43:28;;;;;;;;;;;;;;;14.49;60.49;97289.13;4216545;28;5958;-68
2022/11/13 10:45:31;;;;;;;;;;;;;;;14.50;60.61;97280.94;4203669;28;5639;-69
2022/11/13 10:47:34;;;;;;;;;;;;;;;14.50;60.34;97280.13;4203305;28;6458;-69
2022/11/13 10:50:09;;;;;;;;;;;;;;;14.55;60.26;97275.00;4209674;28;5704;-69
2022/11/13 10:52:17;;;;;;;;;;;;;;;14.54;60.27;97268.88;4208291;28;5621;-70
2022/11/13 10:54:24;;;;;;;;;;;;;;;14.53;60.40;97261.91;4216249;28;6391;-69
2022/11/13 10:56:29;;;;;;;;;;;;;;;14.51;60.17;97263.97;4216325;28;5608;-69
2022/11/13 10:58:32;;;;;;;;;;;;;;;14.54;60.32;97260.88;4216094;28;5621;-69
2022/11/13 11:00:37;;;;;;;;;;;;;;;14.54;60.20;97268.88;4212556;28;5684;-69
2022/11/13 11:02:49;;;;;;;;;;;;;;;14.55;60.11;97256.38;4203750;28;5072;-69
2022/11/13 11:05:04;;;;;;;;;;;;;;;14.50;59.97;97250.88;4201728;28;5774;-70
2022/11/13 11:07:14;;;;;;;;;;;;;;;14.50;59.97;97250.88;4211244;28;5848;-69
2022/11/13 11:09:25;;;;;;;;;;;;;;;14.49;60.03;97247.38;4209374;28;5613;-69
2022/11/13 11:13:48;;;;;;;;;;;;;;;14.56;59.93;97261.50;4210843;28;5758;-69
2022/11/13 11:15:54;;;;;;;;;;;;;;;14.59;59.82;97262.91;4199283;28;5794;-69
2022/11/13 11:18:00;;;;;;;;;;;;;;;14.63;59.82;97271.31;4214356;28;5822;-69
2022/11/13 11:20:07;;;;;;;;;;;;;;;14.60;59.77;97274.38;4207780;28;5897;-69
2022/11/13 11:22:16;;;;;;;;;;;;;;;14.62;59.77;97275.00;4207646;28;7379;-69
2022/11/13 11:24:24;;;;;;;;;;;;;;;14.63;59.83;97271.31;4203303;28;5715;-68
2022/11/13 11:26:31;;;;;;;;;;;;;;;14.64;59.85;97273.78;4213455;28;5601;-70
2022/11/13 11:28:39;;;;;;;;;;;;;;;14.66;59.73;97268.22;4193012;28;5883;-69
2022/11/13 11:30:49;;;;;;;;;;;;;;;14.67;59.51;97251.25;4216108;28;5855;-69
2022/11/13 11:33:04;;;;;;;;;;;;;;;14.67;59.63;97245.91;4215966;28;5699;-69
2022/11/13 11:35:15;;;;;;;;;;;;;;;14.69;59.48;97233.22;4198005;28;5711;-69
2022/11/13 11:37:21;;;;;;;;;;;;;;;14.68;59.60;97231.59;4207995;28;5780;-68
2022/11/13 11:39:29;;;;;;;;;;;;;;;14.69;59.38;97230.56;4200044;28;5807;-68
2022/11/13 11:41:37;;;;;;;;;;;;;;;14.70;59.27;97229.53;4213917;28;5616;-69
2022/11/13 11:43:43;;;;;;;;;;;;;;;14.71;59.37;97228.50;4214753;28;5716;-69
2022/11/13 11:45:47;;;;;;;;;;;;;;;14.72;59.21;97227.47;4202477;28;5782;-69
2022/11/13 11:47:50;;;;;;;;;;;;;;;14.69;59.30;97218.06;4217686;28;5618;-69
2022/11/13 11:49:54;;;;;;;;;;;;;;;14.68;59.04;97221.75;4212179;28;5642;-69
2022/11/13 11:52:09;;;;;;;;;;;;;;;14.67;59.30;97216.66;4209970;28;5778;-69
2022/11/13 11:54:25;;;;;;;;;;;;;;;14.66;58.80;97226.47;4207104;28;5846;-69
2022/11/13 11:56:34;;;;;;;;;;;;;;;14.66;59.20;97228.31;4207092;28;5628;-69
2022/11/13 11:59:01;;;;;;;;;;;;;;;14.70;59.12;97224.22;4204941;28;5710;-69
2022/11/13 12:01:09;;;;;;;;;;;;;;;14.73;58.87;97221.97;4216738;28;5688;-69
2022/11/13 12:03:32;;;;;;;;;;;;;;;14.73;58.88;97231.78;4211724;28;5636;-69
2022/11/13 12:05:44;;;;;;;;;;;;;;;14.69;58.86;97207.44;4213315;28;5691;-70
2022/11/13 12:08:03;;;;;;;;;;;;;;;14.73;58.99;97210.50;4214703;28;5613;-69
2022/11/13 12:10:22;;;;;;;;;;;;;;;14.76;58.54;97204.75;4218090;28;5677;-69
2022/11/13 12:12:39;;;;;;;;;;;;;;;14.75;58.71;97187.16;4212714;28;5614;-68
2022/11/13 12:14:52;;;;;;;;;;;;;;;14.74;58.66;97177.53;4218739;28;5612;-69
2022/11/13 12:17:10;;;;;;;;;;;;;;;14.72;58.67;97177.75;4218572;28;5626;-68
2022/11/13 12:19:31;;;;;;;;;;;;;;;14.74;58.81;97180.19;4210171;28;5698;-69
2022/11/13 12:21:46;;;;;;;;;;;;;;;14.76;58.43;97191.44;4203805;28;5736;-68
2022/11/13 12:24:18;;;;;;;;;;;;;;;14.71;58.34;97181.41;4215778;28;6306;-68
2022/11/13 12:26:26;;;;;;;;;;;;;;;14.71;58.50;97185.91;4216387;28;5665;-68
2022/11/13 12:28:37;;;;;;;;;;;;;;;14.73;58.57;97191.88;4212914;28;5962;-70
2022/11/13 12:30:51;;;;;;;;;;;;;;;14.73;58.32;97186.56;4213781;28;5691;-69
2022/11/13 12:33:15;;;;;;;;;;;;;;;14.71;58.42;97186.75;4209987;28;5783;-69
2022/11/13 12:35:19;;;;;;;;;;;;;;;14.74;58.53;97193.50;4210940;28;5661;-69
2022/11/13 12:37:31;;;;;;;;;;;;;;;14.74;58.36;97186.34;4218266;28;5692;-69
2022/11/13 12:39:42;;;;;;;;;;;;;;;14.77;58.30;97177.13;4215022;28;5696;-69
2022/11/13 12:41:52;;;;;;;;;;;;;;;14.77;58.41;97161.16;4206648;28;6322;-70
2022/11/13 12:44:06;;;;;;;;;;;;;;;14.77;58.16;97155.81;4209781;28;5705;-69
2022/11/13 12:46:10;;;;;;;;;;;;;;;14.76;58.23;97148.88;4218243;28;5616;-69
2022/11/13 12:48:25;;;;;;;;;;;;;;;14.75;58.49;97141.91;4204955;28;6841;-69
2022/11/13 12:50:30;;;;;;;;;;;;;;;14.77;58.44;97137.19;4217880;28;5904;-69
2022/11/13 12:52:34;;;;;;;;;;;;;;;14.76;58.21;97127.56;4217961;28;5605;-69
2022/11/13 12:54:38;;;;;;;;;;;;;;;14.75;58.28;97126.75;4212613;28;5711;-69
2022/11/13 12:56:41;;;;;;;;;;;;;;;14.78;58.29;97138.81;4212458;28;5857;-68
2022/11/13 12:58:54;;;;;;;;;;;;;;;14.77;58.17;97146.00;4216516;28;5605;-69
2022/11/13 13:01:19;;;;;;;;;;;;;;;14.77;58.22;97147.84;4210496;28;5723;-69
2022/11/13 13:03:38;;;;;;;;;;;;;;;14.78;58.26;97152.13;4216721;28;5609;-68
2022/11/13 13:06:04;;;;;;;;;;;;;;;14.79;58.22;97151.09;4210875;28;5687;-69
2022/11/13 13:08:33;;;;;;;;;;;;;;;14.81;58.13;97146.38;4208295;28;5714;-69
2022/11/13 13:10:51;;;;;;;;;;;;;;;14.81;57.99;97135.72;4212997;28;5608;-68
2022/11/13 13:12:59;;;;;;;;;;;;;;;14.82;58.02;97132.03;4203431;28;5802;-68
2022/11/13 13:15:29;;;;;;;;;;;;;;;14.80;58.17;97134.91;4214374;28;5617;-69
2022/11/13 13:17:32;;;;;;;;;;;;;;;14.77;58.29;97135.34;4213786;28;5617;-69
2022/11/13 13:19:35;;;;;;;;;;;;;;;14.77;57.96;97130.03;4216466;28;6347;-69
2022/11/13 13:21:43;;;;;;;;;;;;;;;14.76;58.01;97132.91;4213716;28;5092;-69
2022/11/13 13:23:48;;;;;;;;;;;;;;;14.77;57.98;97140.66;4213913;28;7676;-69
2022/11/13 13:26:02;;;;;;;;;;;;;;;14.79;57.97;97135.94;4209036;28;6478;-69
2022/11/13 13:28:20;;;;;;;;;;;;;;;14.78;58.18;97126.34;4211567;28;5710;-68
2022/11/13 13:30:25;;;;;;;;;;;;;;;14.77;57.84;97126.53;4208339;28;5661;-68
2022/11/13 13:32:36;;;;;;;;;;;;;;;14.74;58.03;97129.63;4211460;28;5644;-68
2022/11/13 13:34:50;;;;;;;;;;;;;;;14.71;57.90;97122.06;4217331;28;5617;-68
2022/11/13 13:36:58;;;;;;;;;;;;;;;14.70;58.15;97123.91;4210927;28;6613;-68
2022/11/13 13:39:08;;;;;;;;;;;;;;;14.67;58.14;97118.19;4215882;28;5740;-69
2022/11/13 13:41:29;;;;;;;;;;;;;;;14.67;58.01;97110.22;4203966;28;5782;-68
2022/11/13 13:43:48;;;;;;;;;;;;;;;14.65;57.87;97114.94;4213862;28;5778;-69
2022/11/13 13:46:01;;;;;;;;;;;;;;;14.64;58.03;97102.66;4214369;28;5674;-68
2022/11/13 13:48:10;;;;;;;;;;;;;;;14.65;58.02;97109.59;4208666;28;5605;-69
2022/11/13 13:50:16;;;;;;;;;;;;;;;14.64;58.05;97103.47;4209056;28;5707;-69
2022/11/13 13:52:25;;;;;;;;;;;;;;;14.64;57.99;97103.47;4216691;28;5720;-69
2022/11/13 13:54:30;;;;;;;;;;;;;;;14.63;58.07;97098.38;4214435;28;6334;-69
2022/11/13 13:56:39;;;;;;;;;;;;;;;14.62;58.06;97100.22;4209200;28;6265;-69
2022/11/13 13:58:42;;;;;;;;;;;;;;;14.63;57.90;97101.03;4216396;28;5617;-69
2022/11/13 14:00:55;;;;;;;;;;;;;;;14.60;57.98;97083.63;4215189;28;5653;-69
2022/11/13 14:03:19;;;;;;;;;;;;;;;14.61;58.03;97089.75;4213373;28;5704;-70
2022/11/13 14:05:28;;;;;;;;;;;;;;;14.61;57.85;97087.94;4214230;28;5743;-69
2022/11/13 14:07:32;;;;;;;;;;;;;;;14.60;57.89;97085.47;4215601;28;5877;-69
2022/11/13 14:09:35;;;;;;;;;;;;;;;14.57;57.91;97076.88;4215658;28;5736;-69
2022/11/13 14:11:39;;;;;;;;;;;;;;;14.59;57.83;97074.00;4214028;28;5770;-68
2022/11/13 14:13:42;;;;;;;;;;;;;;;14.60;58.08;97080.13;4214546;28;5640;-68
2022/11/13 14:15:44;;;;;;;;;;;;;;;14.61;57.90;97084.44;4213234;28;5708;-68
2022/11/13 14:17:47;;;;;;;;;;;;;;;14.62;58.15;97083.44;4215555;28;5688;-68
2022/11/13 14:19:51;;;;;;;;;;;;;;;14.62;57.97;97096.72;4208428;28;5617;-68
2022/11/13 14:21:58;;;;;;;;;;;;;;;14.61;57.99;97097.72;4216450;28;5726;-68
2022/11/13 14:24:02;;;;;;;;;;;;;;;14.60;58.01;97096.09;4214044;28;5632;-68
2022/11/13 14:26:06;;;;;;;;;;;;;;;14.59;57.92;97100.59;4214451;28;6889;-69
2022/11/13 14:28:19;;;;;;;;;;;;;;;14.57;57.75;97095.50;4215928;28;5641;-68
2022/11/13 14:30:24;;;;;;;;;;;;;;;14.54;58.16;97087.13;4214087;28;5818;-70
2022/11/13 14:32:29;;;;;;;;;;;;;;;14.53;58.05;97073.03;4213051;28;5633;-69
2022/11/13 14:34:33;;;;;;;;;;;;;;;14.53;58.14;97073.03;4214420;28;5756;-69
2022/11/13 14:36:36;;;;;;;;;;;;;;;14.54;58.23;97077.31;4214500;28;6372;-69
2022/11/13 14:38:43;;;;;;;;;;;;;;;14.52;58.06;97068.72;4215344;28;5720;-68
2022/11/13 14:40:54;;;;;;;;;;;;;;;14.53;58.09;97070.34;4189865;28;6488;-68
2022/11/13 14:42:59;;;;;;;;;;;;;;;14.53;58.01;97065.03;4212584;28;5629;-68
2022/11/13 14:45:13;;;;;;;;;;;;;;;14.53;57.86;97065.03;4200906;28;5087;-68
2022/11/13 14:47:22;;;;;;;;;;;;;;;14.48;58.02;97058.72;4208797;28;7660;-70
2022/11/13 14:49:30;;;;;;;;;;;;;;;14.46;58.00;97056.25;4214479;28;5621;-69
2022/11/13 14:51:34;;;;;;;;;;;;;;;14.47;58.08;97060.56;4216346;28;5703;-69
2022/11/13 14:53:39;;;;;;;;;;;;;;;14.46;58.00;97064.25;4215187;28;5112;-69
2022/11/13 14:55:51;;;;;;;;;;;;;;;14.48;57.95;97064.03;4213570;28;5652;-69
2022/11/13 14:57:54;;;;;;;;;;;;;;;14.46;58.13;97061.56;4210073;28;5767;-69
2022/11/13 15:00:08;;;;;;;;;;;;;;;14.44;58.11;97060.13;4216223;28;5617;-69
2022/11/13 15:02:13;;;;;;;;;;;;;;;14.40;58.02;97065.06;4213553;28;5610;-68
2022/11/13 15:04:16;;;;;;;;;;;;;;;14.38;58.07;97067.09;4215151;28;5612;-68
2022/11/13 15:06:21;;;;;;;;;;;;;;;14.38;58.07;97066.28;4197676;28;5628;-68
2022/11/13 15:08:24;;;;;;;;;;;;;;;14.38;58.11;97051.13;4204648;28;5676;-69
2022/11/13 15:10:29;;;;;;;;;;;;;;;14.41;58.23;97055.25;4214399;28;6396;-68
2022/11/13 15:12:31;;;;;;;;;;;;;;;14.40;58.47;97065.06;4208486;28;5605;-68
2022/11/13 15:14:42;;;;;;;;;;;;;;;14.41;58.13;97072.03;4216883;28;7363;-68
2022/11/13 15:16:46;;;;;;;;;;;;;;;14.42;58.11;97067.50;4214632;28;5784;-69
2022/11/13 15:18:55;;;;;;;;;;;;;;;14.41;58.21;97056.06;4210771;28;5698;-68
2022/11/13 15:20:58;;;;;;;;;;;;;;;14.43;58.25;97059.31;4218191;28;5657;-68
2022/11/13 15:23:01;;;;;;;;;;;;;;;14.44;58.15;97073.44;4214030;28;5608;-68
2022/11/13 15:25:06;;;;;;;;;;;;;;;14.44;58.21;97071.63;4217921;28;5717;-68
2022/11/13 15:27:13;;;;;;;;;;;;;;;14.44;58.11;97060.97;4219233;28;5700;-70
2022/11/13 15:29:16;;;;;;;;;;;;;;;14.36;58.10;97060.34;4215117;28;5605;-70
2022/11/13 15:31:29;;;;;;;;;;;;;;;14.43;58.20;97063.81;4216097;28;5798;-69
2022/11/13 15:33:32;;;;;;;;;;;;;;;14.41;58.26;97072.03;4211577;28;5640;-69
2022/11/13 15:35:36;;;;;;;;;;;;;;;14.41;58.32;97079.19;4212625;28;5140;-69
2022/11/13 15:37:39;;;;;;;;;;;;;;;14.42;58.32;97078.16;4218978;28;5601;-69
2022/11/13 15:39:42;;;;;;;;;;;;;;;14.41;58.27;97085.31;4214787;28;5617;-69
2022/11/13 15:41:46;;;;;;;;;;;;;;;14.42;58.31;97084.28;4216129;28;5611;-69
2022/11/13 15:43:51;;;;;;;;;;;;;;;14.42;58.46;97084.28;4212482;28;5528;-69
2022/11/13 15:45:53;;;;;;;;;;;;;;;14.40;58.41;97081.03;4215299;28;5629;-68
2022/11/13 15:47:56;;;;;;;;;;;;;;;14.41;58.35;97085.31;4217494;28;5679;-69
2022/11/13 15:49:59;;;;;;;;;;;;;;;14.41;58.45;97080.00;4212073;28;5799;-68
2022/11/13 15:52:17;;;;;;;;;;;;;;;14.39;58.24;97078.59;4208849;28;5827;-68
2022/11/13 15:54:25;;;;;;;;;;;;;;;14.36;58.52;97077.13;4207906;28;5655;-69
2022/11/13 15:56:30;;;;;;;;;;;;;;;14.35;58.26;97088.81;4212349;28;5839;-69
2022/11/13 15:58:32;;;;;;;;;;;;;;;14.35;58.50;97102.09;4211458;28;5688;-68
2022/11/13 16:00:40;;;;;;;;;;;;;;;14.34;58.39;97107.63;4215358;28;5608;-68
2022/11/13 16:02:44;;;;;;;;;;;;;;;14.34;58.42;97104.97;4212332;28;5735;-68
2022/11/13 16:04:47;;;;;;;;;;;;;;;14.34;58.45;97108.44;4210936;28;5827;-69
2022/11/13 16:06:59;;;;;;;;;;;;;;;14.34;58.55;97102.31;4212397;28;5960;-69
2022/11/13 16:09:04;;;;;;;;;;;;;;;14.33;58.63;97106.81;4215100;28;5645;-68
2022/11/13 16:11:10;;;;;;;;;;;;;;;14.31;58.52;97102.75;4207450;28;5781;-68
2022/11/13 16:13:13;;;;;;;;;;;;;;;14.30;58.55;97104.59;4207517;28;5073;-68
2022/11/13 16:15:17;;;;;;;;;;;;;;;14.29;58.68;97108.28;4209395;28;7722;-68
2022/11/13 16:17:20;;;;;;;;;;;;;;;14.28;58.43;97110.13;4213030;28;5604;-68
2022/11/13 16:19:24;;;;;;;;;;;;;;;14.26;58.62;97108.66;4211403;28;6579;-68
2022/11/13 16:21:27;;;;;;;;;;;;;;;14.25;58.43;97104.38;4210489;28;5698;-69
2022/11/13 16:23:30;;;;;;;;;;;;;;;14.23;58.58;97112.56;4203493;28;5698;-68
2022/11/13 16:25:34;;;;;;;;;;;;;;;14.24;58.54;97113.38;4211389;28;5685;-68
2022/11/13 16:27:41;;;;;;;;;;;;;;;14.23;58.46;97122.38;4211380;28;5750;-68
2022/11/13 16:29:44;;;;;;;;;;;;;;;14.22;58.55;97126.06;4214384;28;6561;-69
2022/11/13 16:31:47;;;;;;;;;;;;;;;14.21;58.68;97124.44;4215411;28;6464;-68
2022/11/13 16:33:50;;;;;;;;;;;;;;;14.22;58.51;97126.06;4214388;28;5616;-68
2022/11/13 16:35:53;;;;;;;;;;;;;;;14.21;58.73;97125.25;4211492;28;5621;-68
2022/11/13 16:37:56;;;;;;;;;;;;;;;14.21;58.56;97129.75;4209686;28;5752;-69
2022/11/13 16:39:59;;;;;;;;;;;;;;;14.18;58.73;97124.88;4213297;28;5782;-68
2022/11/13 16:42:04;;;;;;;;;;;;;;;14.16;58.68;97129.56;4205506;28;5601;-69
2022/11/13 16:44:07;;;;;;;;;;;;;;;14.15;58.83;97130.56;4202051;28;6392;-69
2022/11/13 16:46:20;;;;;;;;;;;;;;;14.16;58.91;97129.56;4209176;28;5795;-69
2022/11/13 16:48:25;;;;;;;;;;;;;;;14.16;58.93;97118.94;4205650;28;5651;-69
2022/11/13 16:50:30;;;;;;;;;;;;;;;14.14;58.71;97113.00;4214417;28;6032;-69
2022/11/13 16:52:33;;;;;;;;;;;;;;;14.14;58.96;97123.63;4215051;28;5909;-69
2022/11/13 16:54:35;;;;;;;;;;;;;;;14.14;58.66;97121.78;4211436;28;5989;-70
2022/11/13 16:56:38;;;;;;;;;;;;;;;14.13;58.94;97116.66;4204376;28;5733;-69
2022/11/13 16:58:42;;;;;;;;;;;;;;;14.12;58.66;97115.03;4211296;28;5877;-69
2022/11/13 17:00:45;;;;;;;;;;;;;;;14.14;58.83;97118.31;4212660;28;5779;-69
2022/11/13 17:02:50;;;;;;;;;;;;;;;14.11;58.66;97103.59;4212644;28;5723;-69
2022/11/13 17:04:55;;;;;;;;;;;;;;;14.11;58.71;97102.78;4207670;28;5754;-69
2022/11/13 17:06:58;;;;;;;;;;;;;;;14.12;58.76;97107.88;4208847;28;5712;-69
2022/11/13 17:09:02;;;;;;;;;;;;;;;14.11;59.02;97108.09;4212689;28;6306;-69
2022/11/13 17:11:05;;;;;;;;;;;;;;;14.10;58.75;97112.59;4214437;28;5696;-69
2022/11/13 17:13:09;;;;;;;;;;;;;;;14.08;58.66;97105.84;4207097;28;5936;-69
2022/11/13 17:15:14;;;;;;;;;;;;;;;14.04;59.03;97097.47;4208994;28;5768;-68
2022/11/13 17:17:16;;;;;;;;;;;;;;;14.04;58.83;97096.66;4206970;28;5672;-68
2022/11/13 17:19:19;;;;;;;;;;;;;;;14.02;58.85;97085.41;4209508;28;5604;-68
2022/11/13 17:21:24;;;;;;;;;;;;;;;14.01;59.16;97083.78;4203472;28;5770;-69
2022/11/13 17:23:27;;;;;;;;;;;;;;;13.99;59.17;97084.81;4202854;28;5867;-68
2022/11/13 17:25:30;;;;;;;;;;;;;;;13.98;59.04;97075.19;4211827;28;5742;-68
2022/11/13 17:27:33;;;;;;;;;;;;;;;13.99;58.83;97074.16;4215564;28;5685;-68
2022/11/13 17:29:37;;;;;;;;;;;;;;;13.97;59.11;97070.91;4208510;28;5779;-69
2022/11/13 17:31:41;;;;;;;;;;;;;;;13.96;58.88;97074.59;4210845;28;5726;-68
2022/11/13 17:33:44;;;;;;;;;;;;;;;13.95;59.11;97062.34;4200327;28;5738;-69
2022/11/13 17:35:53;;;;;;;;;;;;;;;13.95;59.12;97072.97;4213219;28;5771;-68
2022/11/13 17:37:56;;;;;;;;;;;;;;;13.94;58.93;97055.38;4215875;28;5805;-69
2022/11/13 17:39:59;;;;;;;;;;;;;;;13.93;58.88;97052.91;4206657;28;5783;-69
2022/11/13 17:42:01;;;;;;;;;;;;;;;13.94;58.97;97049.25;4205924;28;5640;-69
2022/11/13 17:44:04;;;;;;;;;;;;;;;13.93;59.13;97040.47;4210672;28;5620;-69
2022/11/13 17:46:10;;;;;;;;;;;;;;;13.93;58.91;97052.91;4215306;28;5755;-69
2022/11/13 17:48:15;;;;;;;;;;;;;;;13.94;58.67;97047.41;4213746;28;5723;-69
2022/11/13 17:50:18;;;;;;;;;;;;;;;13.93;58.78;97040.47;4211192;28;5717;-69
2022/11/13 17:52:20;;;;;;;;;;;;;;;13.93;59.07;97037.81;4208084;28;5897;-68
2022/11/13 17:54:24;;;;;;;;;;;;;;;13.93;58.83;97029.00;4204044;28;5719;-69
2022/11/13 17:56:27;;;;;;;;;;;;;;;13.92;58.91;97030.84;4215342;28;5798;-68
2022/11/13 17:58:30;;;;;;;;;;;;;;;13.93;58.84;97037.81;4203509;28;5699;-68
2022/11/13 18:00:33;;;;;;;;;;;;;;;13.93;58.80;97040.47;4212934;28;5695;-68
2022/11/13 18:02:36;;;;;;;;;;;;;;;13.92;58.98;97038.00;4213274;28;5135;-68
2022/11/13 18:04:40;;;;;;;;;;;;;;;13.92;59.16;97043.31;4212961;28;5613;-68
2022/11/13 18:06:43;;;;;;;;;;;;;;;13.91;58.80;97037.16;4213908;28;5704;-69
2022/11/13 18:08:46;;;;;;;;;;;;;;;13.90;58.92;97045.34;4210170;28;5636;-68
2022/11/13 18:10:49;;;;;;;;;;;;;;;13.89;59.18;97055.16;4211486;28;6425;-69
2022/11/13 18:12:52;;;;;;;;;;;;;;;13.89;58.97;97057.00;4206160;28;6288;-69
2022/11/13 18:14:55;;;;;;;;;;;;;;;13.90;59.10;97061.31;4209697;28;5820;-68